Tiempo atmosférico en la estación meteorológica de El Bodón Base Aérea, Salamanca (805 m.)



Fecha
DESCASC
Temp. máxima en grados centígrados (hora)
DESCASC
Temp. mínima en grados centígrados (hora)
DESCASC
Temp. media en grados centígrados
DESCASC
Racha de viento máxima en m/sg (hora)
DESCASC
Velocidad máxima media en intervalos de 10 minutos(hora)
DESCASC
Precipitaciones diarias en mm
DESCASC
Precipitaciones de 00:00 a 06:00 en mm
DESCASC
Precipitaciones de 06:00 a 12:00 en mm
DESCASC
Precipitaciones de 12:00 a 18:00 en mm
DESCASC
Precipitaciones de 18:00 a 24:00 en mm
DESCASC
30-11-2020 14.9 (15:50) 5.4 (23:50) 10.1 6.67 (04:40) 3.89 (05:00) 3.6 3.6 0 0 0
29-11-2020 10.7 (15:40) 7.6 (00:00) 9.1 14.72 (00:30) 8.06 (00:40) 19 2 0.4 0 16.6
28-11-2020 10.5 (14:50) 2.5 (00:00) 6.5 12.22 (23:40) 6.94 (20:20) 0.2 0.2 0 0 0
27-11-2020 12.7 (16:00) 4.5 (00:00) 8.6 6.39 (16:40) 3.61 (16:40) 0 0 0 0 0
26-11-2020 8.8 (13:40) 6.2 (00:00) 7.5 11.39 (12:00) 7.78 (05:40) 9.4 5.6 3 0.6 0.2
25-11-2020 8.9 (17:50) 6.6 (00:00) 7.7 12.78 (13:40) 7.78 (18:40) 6.6 0.4 3.6 1.6 1
24-11-2020 12.6 (14:30) 2.8 (00:00) 7.7 7.22 (16:00) 5.56 (16:00) 0 0 0 0 0
23-11-2020 14.9 (15:10) -0.2 (00:00) 7.3 3.89 (02:00) 3.06 (05:30) 0 0 0 0 0
22-11-2020 16.6 (15:00) 2.6 (00:00) 9.6 3.61 (01:50) 2.5 (01:50) 0 0 0 0 0
21-11-2020 13.8 (17:40) -0.7 (-00:0) 6.6 5 (00:20) 2.5 (00:20) 0 0 0 0 0
20-11-2020 14.5 (15:40) 3.6 (00:00) 9 7.78 (15:50) 5.56 (15:50) 0 0 0 0 0
19-11-2020 19.6 (15:20) 6 (00:00) 12.8 6.11 (14:10) 4.17 (13:30) 0 0 0 0 0
18-11-2020 20 (14:50) 10.2 (00:00) 15.1 7.78 (11:50) 5.28 (00:20) 0 0 0 0 0
17-11-2020 18.3 (15:50) 4 (00:00) 11.1 8.33 (13:30) 5.56 (12:50) 0 0 0 0 0
16-11-2020 17.3 (15:50) 6.9 (00:00) 12.1 4.72 (04:50) 3.33 (04:50) 0 0 0 0 0
15-11-2020 15.4 (13:50) 11.2 (00:00) 13.3 10.83 (11:50) 6.94 (09:20) 0 0 0 0 0
14-11-2020 13.3 (15:20) 10.7 (00:00) 12 10.28 (10:50) 7.22 (12:20) 0 0 0 0 0
13-11-2020 14.7 (14:20) 8 (00:00) 11.3 8.89 (15:50) 5.56 (14:30) 0 0 0 0 0
12-11-2020 15.3 (12:10) 6.9 (00:00) 11.1 5 (14:40) 3.89 (14:40) 0 0 0 0 0
11-11-2020 14.4 (14:50) 1.4 (00:00) 7.9 9.72 (11:30) 6.11 (12:40) 0.2 0.2 0 0 0
10-11-2020 13.7 (17:00) 6.1 (00:00) 9.9 3.06 (23:59) 2.22 (23:59) 0 0 0 0 0
09-11-2020 14.3 (14:30) 6.7 (00:00) 10.5 5.28 (13:20) 3.61 (05:00) 1.6 0 0 0 1.6
08-11-2020 12.4 (15:00) 10.1 (00:00) 11.3 12.22 (15:10) 7.5 (04:20) 10.8 0.2 1 2.6 7
07-11-2020 13.1 (16:30) 8.7 (00:00) 10.9 11.11 (21:00) 7.5 (15:00) 2.6 1.6 1 0 0
06-11-2020 16.2 (14:00) 10 (00:00) 13.1 18.61 (18:30) 10.83 (18:30) 16.6 5.6 1.2 0.4 9.4
05-11-2020 12.9 (14:00) 7.1 (00:00) 10 11.39 (12:00) 6.39 (12:40) 15 1.8 3.6 8.4 1.2
04-11-2020 8.5 (16:30) 3 (00:00) 5.8 10.56 (17:30) 5.83 (13:00) 0.6 0 0 0.2 0.4
03-11-2020 14.2 (00:00) 4.5 (00:00) 9.3 12.5 (16:30) 7.22 (16:00) 0.2 0.2 0 0 0
02-11-2020 18.1 (13:20) 12.4 (00:00) 15.3 5.28 (23:59) 3.89 (23:59) 0.2 0 0 0 0.2

Gráficas

Temp. máximas Temp. mínimas Temp. medias Precipitaciones Rachas de viento máximas Velocidades máximas media en intervalos de 10 minutos

Datos horarios

Fecha y hora oficial Temperatura (ºC) Velocidad del viento (km/h) Dirección del viento Racha (km/h) Dirección de racha Precipitación (mm) Presión (hPa) Tendencia (hPa) Humedad (%)
2020-12-01 23:00:00 3.6 5 Sur 13 Norte 0 -- -- 77
2020-12-01 22:00:00 5.5 9 Norte 16 Norte 0 -- -- 70
2020-12-01 21:00:00 6.1 10 Norte 14 Norte 0 -- -- 68
2020-12-01 20:00:00 6.6 6 Norte 16 Nordeste 0 -- -- 66
2020-12-01 19:00:00 7.9 12 Nordeste 20 Nordeste 0 -- -- 60
2020-12-01 18:00:00 9.2 12 Nordeste 19 Norte 0 -- -- 58
2020-12-01 17:00:00 11.3 13 Norte 21 Norte 0 -- -- 50
2020-12-01 16:00:00 11.3 11 Norte 18 Norte 0 -- -- 56
2020-12-01 15:00:00 9.5 12 Norte 20 Norte 0 -- -- 72
2020-12-01 14:00:00 7.7 6 Norte 11 Noroeste 0 -- -- 99
2020-12-01 13:00:00 5.7 4 Noroeste 9 Nordeste 0 -- -- 100
2020-12-01 12:00:00 4.3 2 Norte 8 Norte 0 -- -- 99
2020-12-01 11:00:00 3.5 5 Norte 12 Norte 0 -- -- 99
2020-12-01 10:00:00 2.8 0 Calma 12 Sur 0 -- -- 99
2020-12-01 09:00:00 2.8 8 Sur 14 Sur 0 -- -- 99
2020-12-01 08:00:00 2.9 3 Sur 9 Sur 0.2 -- -- 99
2020-12-01 07:00:00 3.2 2 Nordeste 5 Sur 0 -- -- 99
2020-12-01 06:00:00 2.1 6 Sur 9 Sur 0 -- -- 98
2020-12-01 05:00:00 2.6 8 Sur 11 Sur 0 -- -- 97
2020-12-01 04:00:00 3.3 2 Sur 14 Sur 0 -- -- 98
2020-12-01 03:00:00 3.6 10 Sur 15 Sur 0 -- -- 96
2020-12-01 02:00:00 4.4 3 Sur 15 Sur 0 -- -- 97
2020-12-01 01:00:00 4.7 7 Sur 9 Sur 0 -- -- 96
2020-12-01 00:00:00 5.4 5 Sur 8 Sur 0 -- -- 95
2020-11-30 23:00:00 6.3 0 Calma 7 Noroeste 0 -- -- 93
2020-11-30 22:00:00 7.2 4 Noroeste 9 Sudoeste 0 -- -- 92
2020-11-30 21:00:00 7.7 2 Noroeste 4 Norte 0 -- -- 90
2020-11-30 20:00:00 9.2 4 Norte 11 Nordeste 0 -- -- 86
2020-11-30 19:00:00 10.4 7 Norte 14 Norte 0 -- -- 82
2020-11-30 18:00:00 12.3 8 Norte 17 Norte 0 -- -- 79
2020-11-30 17:00:00 13.8 10 Norte 18 Norte 0 -- -- 77
2020-11-30 16:00:00 14.9 9 Norte 15 Norte 0 -- -- 74
2020-11-30 15:00:00 13.5 6 Norte 13 Norte 0 -- -- 81
2020-11-30 14:00:00 12.9 6 Norte 13 Norte 0 -- -- 86
2020-11-30 13:00:00 11.9 7 Norte 13 Norte 0 -- -- 87
2020-11-30 12:00:00 10.9 6 Norte 9 Norte 0 -- -- 94
2020-11-30 11:00:00 10.2 6 Este 11 Este 0 -- -- 93
2020-11-30 10:00:00 8.2 4 Sudeste 17 Este 0 -- -- 97
2020-11-30 09:00:00 6.2 8 Este 13 Este 0 -- -- 99
2020-11-30 08:00:00 6.3 4 Norte 8 Nordeste 0 -- -- 98
2020-11-30 07:00:00 6.8 3 Oeste 11 Este 0 -- -- 97
2020-11-30 06:00:00 7.9 7 Este 19 Este 0 -- -- 98
2020-11-30 05:00:00 7.8 14 Este 24 Este 0 -- -- 98
2020-11-30 04:00:00 7.2 13 Este 18 Este 0 -- -- 98
2020-11-30 03:00:00 7.3 4 Este 9 Este 0.6 -- -- 98
2020-11-30 02:00:00 7.4 8 Este 16 Este 2.2 -- -- 98
2020-11-30 01:00:00 7.6 5 Nordeste 7 Nordeste 0.8 -- -- 98
2020-11-30 00:00:00 7.8 0 Calma 21 Sur 5.2 -- -- 98
2020-11-29 23:00:00 8.2 7 Norte 13 Norte 2.8 -- -- 97
2020-11-29 22:00:00 8.3 6 Norte 12 Noroeste 3.6 -- -- 97
2020-11-29 21:00:00 8.5 6 Noroeste 12 Noroeste 3.8 -- -- 95
2020-11-29 20:00:00 8.9 5 Sur 9 Sudeste 1.2 -- -- 92
2020-11-29 19:00:00 9.2 4 Este 11 Sudeste 0 -- -- 90
2020-11-29 18:00:00 9.5 6 Sudeste 14 Este 0 -- -- 88
2020-11-29 17:00:00 10.1 5 Sudeste 15 Sudeste 0 -- -- 85
2020-11-29 16:00:00 10.6 13 Sudeste 21 Sur 0 -- -- 79
2020-11-29 15:00:00 10.3 8 Sur 24 Sur 0 -- -- 83
2020-11-29 14:00:00 10.1 14 Sudeste 32 Sudeste 0 -- -- 81
2020-11-29 13:00:00 9.6 15 Sudeste 28 Sur 0 -- -- 84
2020-11-29 12:00:00 9.2 16 Sudeste 28 Sudeste 0 -- -- 87
2020-11-29 11:00:00 8.8 12 Sur 22 Sur 0.2 -- -- 91
2020-11-29 10:00:00 7.9 14 Sudeste 22 Sudeste 0 -- -- 94
2020-11-29 09:00:00 7.7 8 Sudeste 17 Sudeste 0 -- -- 93
2020-11-29 08:00:00 7.7 10 Sudeste 21 Sudeste 0 -- -- 93
2020-11-29 07:00:00 7.6 6 Sudeste 19 Sudeste 0.2 -- -- 94
2020-11-29 06:00:00 7.7 13 Sudeste 29 Sudeste 0.2 -- -- 94
2020-11-29 05:00:00 8 12 Sur 30 Sur 0.8 -- -- 94
2020-11-29 04:00:00 8.2 12 Sudeste 35 Sudeste 0 -- -- 94
2020-11-29 03:00:00 8.3 11 Sudeste 25 Sudeste 0.8 -- -- 94
2020-11-29 02:00:00 8.6 14 Sur 41 Sur 0.2 -- -- 91
2020-11-29 01:00:00 8.6 28 Sudeste 53 Sudeste 0 -- -- 90
2020-11-29 00:00:00 8.6 22 Sudeste 44 Sudeste 0 -- -- 88
2020-11-28 23:00:00 8.3 18 Sudeste 35 Sur 0 -- -- 88
2020-11-28 22:00:00 8.3 19 Sudeste 34 Sur 0 -- -- 88
2020-11-28 21:00:00 8.4 17 Sur 35 Sudeste 0 -- -- 89
2020-11-28 20:00:00 8.5 16 Sudeste 29 Sudeste 0 -- -- 87
2020-11-28 19:00:00 8.6 14 Sudeste 29 Sudeste 0 -- -- 86
2020-11-28 18:00:00 8.5 13 Sur 30 Sudeste 0 -- -- 86
2020-11-28 17:00:00 8.6 19 Sur 33 Sur 0 -- -- 86
2020-11-28 16:00:00 9.2 15 Sur 32 Sur 0 -- -- 83
2020-11-28 15:00:00 10.2 19 Sur 30 Sudeste 0 -- -- 80
2020-11-28 14:00:00 9.7 18 Sur 27 Sur 0 -- -- 84
2020-11-28 13:00:00 9.4 16 Sur 24 Sur 0 -- -- 85
2020-11-28 12:00:00 9.2 9 Sur 12 Sudoeste 0 -- -- 94
2020-11-28 11:00:00 7.6 5 Sur 10 Sur 0 -- -- 100
2020-11-28 10:00:00 5.6 6 Sur 10 Sudeste 0 -- -- 99
2020-11-28 09:00:00 4.5 4 Sur 9 Sudeste 0 -- -- 99
2020-11-28 08:00:00 4.2 7 Sur 13 Sudeste 0 -- -- 99
2020-11-28 07:00:00 4.4 6 Sur 11 Sur 0 -- -- 99
2020-11-28 06:00:00 3.7 6 Sudeste 9 Sudeste 0 -- -- 99
2020-11-28 05:00:00 2.8 6 Sur 12 Sur 0.2 -- -- 98
2020-11-28 04:00:00 3.2 6 Sudeste 9 Sudeste 0 -- -- 99
2020-11-28 03:00:00 3.9 5 Sudeste 8 Sudeste 0 -- -- 98
2020-11-28 02:00:00 5.1 5 Sur 9 Sur 0 -- -- 98
2020-11-28 01:00:00 4.8 5 Sudeste 13 Sudeste 0 -- -- 98
2020-11-28 00:00:00 4.5 7 Sur 10 Sur 0 -- -- 96
2020-11-27 23:00:00 5 6 Sur 8 Sudeste 0 -- -- 95
2020-11-27 22:00:00 6 0 Calma 12 Sur 0 -- -- 93
2020-11-27 21:00:00 7 7 Sudoeste 10 Sudoeste 0 -- -- 91
2020-11-27 20:00:00 7.7 3 Sudeste 12 Sur 0 -- -- 91
2020-11-27 19:00:00 8.5 5 Sur 18 Sur 0 -- -- 88
2020-11-27 18:00:00 10.8 7 Este 16 Este 0 -- -- 80
2020-11-27 17:00:00 11.6 9 Nordeste 23 Nordeste 0 -- -- 71
2020-11-27 16:00:00 12.7 8 Norte 15 Noroeste 0 -- -- 73
2020-11-27 15:00:00 11.4 9 Norte 15 Norte 0 -- -- 83
2020-11-27 14:00:00 10.3 5 Norte 12 Nordeste 0 -- -- 91
2020-11-27 13:00:00 8.3 0 Calma 6 Norte 0 -- -- 99
2020-11-27 12:00:00 6.9 4 Norte 8 Norte 0 -- -- 99
2020-11-27 11:00:00 6.4 3 Nordeste 12 Nordeste 0 -- -- 99
2020-11-27 10:00:00 6 3 Oeste 5 Sur 0 -- -- 99
2020-11-27 09:00:00 5.6 0 Calma 9 Sudeste 0 -- -- 98
2020-11-27 08:00:00 5.5 0 Calma 4 Sur 0 -- -- 98
2020-11-27 07:00:00 5.4 3 Noroeste 11 Noroeste 0 -- -- 98
2020-11-27 06:00:00 5.6 8 Norte 13 Norte 0 -- -- 97
2020-11-27 05:00:00 5.4 4 Norte 13 Noroeste 0 -- -- 97
2020-11-27 04:00:00 4.9 5 Sur 5 Sur 0 -- -- 94
2020-11-27 03:00:00 6.1 2 Noroeste 9 Nordeste 0 -- -- 93
2020-11-27 02:00:00 6.1 4 Sudoeste 13 Sudeste 0 -- -- 95
2020-11-27 01:00:00 5.8 6 Sudeste 11 Sudeste 0 -- -- 94
2020-11-27 00:00:00 6.2 5 Sudeste 10 Sudeste 0 -- -- 91
2020-11-26 23:00:00 7.1 10 Sudeste 16 Sudeste 0 -- -- 93
2020-11-26 22:00:00 7.4 6 Sudeste 10 Sudeste 0 -- -- 94
2020-11-26 21:00:00 7.6 0 Calma 8 Este 0 -- -- 94
2020-11-26 20:00:00 7.5 2 Nordeste 5 Sur 0.2 -- -- 95
2020-11-26 19:00:00 7.6 3 Sur 10 Sur 0 -- -- 94
2020-11-26 18:00:00 7.7 6 Sudeste 13 Sur 0.2 -- -- 92
2020-11-26 17:00:00 8 6 Sudeste 17 Sudeste 0 -- -- 90
2020-11-26 16:00:00 7.9 11 Sudeste 26 Sudeste 0.2 -- -- 91
2020-11-26 15:00:00 8.6 12 Sudeste 19 Este 0 -- -- 90
2020-11-26 14:00:00 8.8 10 Este 31 Este 0 -- -- 89
2020-11-26 13:00:00 8.4 17 Sudeste 36 Sudeste 0.2 -- -- 90
2020-11-26 12:00:00 8.1 26 Sudeste 41 Sudeste 0.2 -- -- 91
2020-11-26 11:00:00 8 16 Sudeste 28 Sudeste 0 -- -- 91
2020-11-26 10:00:00 7 8 Sudeste 21 Sur 2 -- -- 95
2020-11-26 09:00:00 7.2 12 Sudeste 33 Sudeste 0.6 -- -- 92
2020-11-26 08:00:00 6.9 16 Sur 37 Sur 0 -- -- 92
2020-11-26 07:00:00 7.7 19 Sur 35 Sur 0.2 -- -- 93
2020-11-26 06:00:00 7.9 21 Sudeste 41 Sudeste 0.2 -- -- 91
2020-11-26 05:00:00 8.1 24 Sudeste 35 Sudeste 0.8 -- -- 92
2020-11-26 04:00:00 8 11 Sudeste 28 Sudeste 0.6 -- -- 94
2020-11-26 03:00:00 8.2 18 Sudeste 29 Sudeste 1 -- -- 93
2020-11-26 02:00:00 8.3 12 Sudeste 40 Sudeste 2 -- -- 95
2020-11-26 01:00:00 8.4 17 Sur 33 Sudeste 1 -- -- 95
2020-11-26 00:00:00 8.7 17 Sur 37 Sur 0 -- -- 95
2020-11-25 23:00:00 8.8 18 Sur 37 Sur 0.2 -- -- 96
2020-11-25 22:00:00 8.8 21 Sur 42 Sur 0 -- -- 95
2020-11-25 21:00:00 8.9 21 Sudeste 44 Sur 0.2 -- -- 95
2020-11-25 20:00:00 8.8 19 Sudeste 42 Sudeste 0.2 -- -- 94
2020-11-25 19:00:00 8.8 24 Sudeste 42 Sudeste 0.4 -- -- 93
2020-11-25 18:00:00 8.8 22 Sudeste 44 Sudeste 0.2 -- -- 93
2020-11-25 17:00:00 8.7 22 Sudeste 40 Sudeste 0 -- -- 92
2020-11-25 16:00:00 8.7 19 Sudeste 39 Sudeste 0.4 -- -- 92
2020-11-25 15:00:00 8.5 19 Sudeste 45 Sudeste 0 -- -- 92
2020-11-25 14:00:00 8.4 21 Sudeste 46 Sudeste 0 -- -- 93
2020-11-25 13:00:00 8.3 15 Sudeste 34 Sudeste 1 -- -- 94
2020-11-25 12:00:00 8 16 Sudeste 33 Sudeste 1.2 -- -- 94
2020-11-25 11:00:00 7.9 17 Sudeste 34 Sur 0.8 -- -- 94
2020-11-25 10:00:00 7.8 17 Sur 34 Sudeste 0.8 -- -- 94
2020-11-25 09:00:00 7.5 16 Sur 26 Sur 0.6 -- -- 95
2020-11-25 08:00:00 7.6 13 Sur 35 Sudeste 0.2 -- -- 92
2020-11-25 07:00:00 7.7 15 Sudeste 32 Sudeste 0 -- -- 93
2020-11-25 06:00:00 7.5 17 Sudeste 34 Sur 0.4 -- -- 94
2020-11-25 05:00:00 7.8 24 Sur 39 Sur 0 -- -- 92
2020-11-25 04:00:00 7.4 14 Sur 26 Sur 0 -- -- 93
2020-11-25 03:00:00 7 19 Sur 28 Sur 0 -- -- 92
2020-11-25 02:00:00 6.8 9 Sur 17 Sur 0 -- -- 93
2020-11-25 01:00:00 6.7 11 Sur 21 Sur 0 -- -- 92
2020-11-25 00:00:00 6.8 9 Sudeste 18 Sudeste 0 -- -- 93
2020-11-24 23:00:00 6.6 7 Sur 10 Sur 0 -- -- 94
2020-11-24 22:00:00 6.7 6 Sur 10 Sudeste 0 -- -- 93
2020-11-24 21:00:00 6.2 6 Sur 13 Sudeste 0 -- -- 90
2020-11-24 20:00:00 6.6 10 Sur 17 Sudeste 0 -- -- 90
2020-11-24 19:00:00 7.5 8 Sur 17 Sur 0 -- -- 86
2020-11-24 18:00:00 9.7 10 Sur 20 Sur 0 -- -- 79
2020-11-24 17:00:00 10.6 13 Sur 24 Sur 0 -- -- 73
2020-11-24 16:00:00 11.9 20 Sur 26 Sur 0 -- -- 68
2020-11-24 15:00:00 12.5 14 Sur 24 Sur 0 -- -- 68
2020-11-24 14:00:00 12.3 13 Sur 25 Sudoeste 0 -- -- 69
2020-11-24 13:00:00 11.5 11 Sudeste 19 Sur 0 -- -- 70
2020-11-24 12:00:00 10.5 12 Sur 23 Sur 0 -- -- 75
2020-11-24 11:00:00 9.3 10 Sur 18 Sur 0 -- -- 83
2020-11-24 10:00:00 7.6 10 Sur 16 Sur 0 -- -- 88
2020-11-24 09:00:00 4.9 12 Sur 16 Sur 0 -- -- 94
2020-11-24 08:00:00 4.1 10 Sur 13 Sur 0 -- -- 91
2020-11-24 07:00:00 3.6 4 Sur 15 Sur 0 -- -- 93
2020-11-24 06:00:00 3.3 11 Sur 20 Sur 0 -- -- 91
2020-11-24 05:00:00 3 13 Sur 17 Sur 0 -- -- 90
2020-11-24 04:00:00 4 9 Sur 14 Sur 0 -- -- 84
2020-11-24 03:00:00 4.8 11 Sur 18 Sur 0 -- -- 81
2020-11-24 02:00:00 4.5 9 Sur 13 Sur 0 -- -- 84
2020-11-24 01:00:00 3.9 7 Sur 13 Sur 0 -- -- 90
2020-11-24 00:00:00 4.3 8 Sur 12 Sur 0 -- -- 91
2020-11-23 23:00:00 4.9 5 Sur 8 Sur 0 -- -- 91
2020-11-23 22:00:00 5.6 6 Sur 12 Sur 0 -- -- 90
2020-11-23 21:00:00 7.1 4 Sur 10 Sur 0 -- -- 85
2020-11-23 20:00:00 8.9 7 Sur 9 Sur 0 -- -- 79
2020-11-23 19:00:00 9.6 0 Calma 4 Nordeste 0 -- -- 75
2020-11-23 18:00:00 12.9 3 Nordeste 6 Norte 0 -- -- 64
2020-11-23 17:00:00 13.9 4 Norte 11 Nordeste 0 -- -- 62
2020-11-23 16:00:00 14.5 6 Norte 11 Nordeste 0 -- -- 61
2020-11-23 15:00:00 14.8 5 Noroeste 11 Noroeste 0 -- -- 58
2020-11-23 14:00:00 13.2 6 Norte 9 Norte 0 -- -- 65
2020-11-23 13:00:00 11.2 5 Norte 9 Norte 0 -- -- 71
2020-11-23 12:00:00 10 4 Norte 6 Norte 0 -- -- 73
2020-11-23 11:00:00 9.4 0 Calma 5 Sur 0 -- -- 75
2020-11-23 10:00:00 4.6 4 Sur 13 Sur 0 -- -- 87
2020-11-23 09:00:00 0.4 10 Sur 14 Sur 0 -- -- 93
2020-11-23 08:00:00 0 9 Sur 12 Sur 0 -- -- 91
2020-11-23 07:00:00 0.2 0 Calma 13 Sur 0 -- -- 90
2020-11-23 06:00:00 0.4 10 Sur 13 Sur 0 -- -- 90
2020-11-23 05:00:00 0.7 10 Sur 12 Sur 0 -- -- 89
2020-11-23 04:00:00 1.2 8 Sur 12 Sudeste 0 -- -- 89
2020-11-23 03:00:00 1.9 10 Sur 13 Sur 0 -- -- 89
2020-11-23 02:00:00 1.9 11 Sur 14 Sur 0 -- -- 90
2020-11-23 01:00:00 3 6 Sur 12 Sur 0 -- -- 88
2020-11-23 00:00:00 3.4 7 Sur 10 Sur 0 -- -- 88
2020-11-22 23:00:00 5.8 5 Sudoeste 9 Sur 0 -- -- 80
2020-11-22 22:00:00 6.4 3 Sur 5 Sur 0 -- -- 77
2020-11-22 21:00:00 7.7 4 Sur 5 Sur 0 -- -- 66
2020-11-22 20:00:00 9.6 4 Norte 6 Norte 0 -- -- 61
2020-11-22 19:00:00 11 3 Norte 9 Norte 0 -- -- 61
2020-11-22 18:00:00 13.4 3 Norte 13 Norte 0 -- -- 58
2020-11-22 17:00:00 15.4 7 Norte 12 Norte 0 -- -- 54
2020-11-22 16:00:00 15.6 6 Nordeste 12 Nordeste 0 -- -- 56
2020-11-22 15:00:00 16.6 4 Noroeste 10 Noroeste 0 -- -- 55
2020-11-22 14:00:00 15.4 3 Norte 12 Oeste 0 -- -- 60
2020-11-22 13:00:00 15.4 4 Sur 10 Sur 0 -- -- 54
2020-11-22 12:00:00 13.8 6 Sur 10 Sur 0 -- -- 59
2020-11-22 11:00:00 10.5 4 Sur 7 Sur 0 -- -- 69
2020-11-22 10:00:00 6.8 4 Sur 9 Sur 0 -- -- 83
2020-11-22 09:00:00 3.2 6 Sur 11 Sudeste 0 -- -- 91
2020-11-22 08:00:00 2.9 8 Sur 11 Sudeste 0 -- -- 89
2020-11-22 07:00:00 4.2 5 Sudeste 6 Sudeste 0 -- -- 80
2020-11-22 06:00:00 4.7 2 Sudoeste 7 Sur 0 -- -- 79
2020-11-22 05:00:00 4.9 4 Sudeste 12 Sur 0 -- -- 78
2020-11-22 04:00:00 5.6 7 Sudeste 12 Sur 0 -- -- 75
2020-11-22 03:00:00 5 6 Sur 10 Sur 0 -- -- 77
2020-11-22 02:00:00 5.2 8 Sur 13 Sur 0 -- -- 75
2020-11-22 01:00:00 4.4 4 Sur 8 Sudeste 0 -- -- 83
2020-11-22 00:00:00 5.2 8 Sudeste 12 Sudeste 0 -- -- 82
2020-11-21 23:00:00 5.8 7 Sudeste 11 Sudeste 0 -- -- 80
2020-11-21 22:00:00 7 5 Sur 9 Sudoeste 0 -- -- 75
2020-11-21 21:00:00 7.5 7 Sur 12 Sur 0 -- -- 78
2020-11-21 20:00:00 8.7 6 Sur 8 Sur 0 -- -- 71
2020-11-21 19:00:00 10.1 0 Calma 0 Calma 0 -- -- 66
2020-11-21 18:00:00 13.4 0 Calma 4 Noroeste 0 -- -- 55
2020-11-21 17:00:00 13.4 3 Norte 6 Norte 0 -- -- 54
2020-11-21 16:00:00 13.7 3 Norte 8 Norte 0 -- -- 57
2020-11-21 15:00:00 12.5 4 Nordeste 9 Norte 0 -- -- 62
2020-11-21 14:00:00 12.2 3 Noroeste 7 Noroeste 0 -- -- 64
2020-11-21 13:00:00 9.9 0 Calma 4 Noroeste 0 -- -- 74
2020-11-21 12:00:00 6.7 4 Nordeste 9 Nordeste 0 -- -- 83
2020-11-21 11:00:00 5.7 0 Calma 7 Sur 0 -- -- 87
2020-11-21 10:00:00 2.9 0 Calma 9 Sur 0 -- -- 95
2020-11-21 09:00:00 -0.1 5 Sur 8 Sudeste 0 -- -- 97
2020-11-21 08:00:00 -0.7 5 Sur 9 Sur 0 -- -- 95
2020-11-21 07:00:00 -0.1 4 Sur 8 Sur 0 -- -- 95
2020-11-21 06:00:00 0.6 5 Sur 7 Sur 0 -- -- 93
2020-11-21 05:00:00 0.9 0 Calma 6 Sur 0 -- -- 93
2020-11-21 04:00:00 1.2 6 Sur 8 Sur 0 -- -- 92
2020-11-21 03:00:00 1.9 3 Sur 5 Sur 0 -- -- 89
2020-11-21 02:00:00 3.4 2 Oeste 10 Sur 0 -- -- 87
2020-11-21 01:00:00 4.2 6 Norte 18 Norte 0 -- -- 85
2020-11-21 00:00:00 3.8 0 Calma 8 Sur 0 -- -- 86
2020-11-20 23:00:00 4.6 0 Calma 6 Norte 0 -- -- 81
2020-11-20 22:00:00 5.2 0 Calma 5 Noroeste 0 -- -- 80
2020-11-20 21:00:00 7.1 0 Calma 22 Norte 0 -- -- 73
2020-11-20 20:00:00 7.8 10 Norte 15 Norte 0 -- -- 71
2020-11-20 19:00:00 9.2 13 Norte 23 Norte 0 -- -- 65
2020-11-20 18:00:00 11.1 15 Norte 26 Norte 0 -- -- 58
2020-11-20 17:00:00 13.6 17 Norte 27 Norte 0 -- -- 48
2020-11-20 16:00:00 14.4 18 Norte 28 Norte 0 -- -- 51
2020-11-20 15:00:00 13.8 18 Norte 26 Norte 0 -- -- 55
2020-11-20 14:00:00 12.9 13 Norte 27 Nordeste 0 -- -- 62
2020-11-20 13:00:00 12 15 Norte 26 Norte 0 -- -- 66
2020-11-20 12:00:00 11 12 Norte 18 Norte 0 -- -- 71
2020-11-20 11:00:00 8.5 9 Norte 17 Noroeste 0 -- -- 80
2020-11-20 10:00:00 6.4 8 Norte 18 Norte 0 -- -- 91
2020-11-20 09:00:00 5 9 Norte 18 Norte 0 -- -- 96
2020-11-20 08:00:00 4.9 4 Norte 9 Norte 0 -- -- 95
2020-11-20 07:00:00 5.3 4 Noroeste 8 Noroeste 0 -- -- 97
2020-11-20 06:00:00 6.1 3 Noroeste 14 Norte 0 -- -- 97
2020-11-20 05:00:00 6 5 Noroeste 9 Norte 0 -- -- 97
2020-11-20 04:00:00 6.6 4 Noroeste 13 Norte 0 -- -- 96
2020-11-20 03:00:00 7.7 3 Nordeste 18 Norte 0 -- -- 96
2020-11-20 02:00:00 8 9 Norte 13 Norte 0 -- -- 95
2020-11-20 01:00:00 8.9 3 Nordeste 11 Sur 0 -- -- 91
2020-11-20 00:00:00 9.2 3 Norte 9 Norte 0 -- -- 91
2020-11-19 23:00:00 10 3 Norte 10 Norte 0 -- -- 89
2020-11-19 22:00:00 11.1 6 Norte 9 Nordeste 0 -- -- 86
2020-11-19 21:00:00 12 7 Norte 11 Norte 0 -- -- 84
2020-11-19 20:00:00 13.3 6 Norte 10 Norte 0 -- -- 79
2020-11-19 19:00:00 14.7 6 Norte 10 Norte 0 -- -- 74
2020-11-19 18:00:00 16.5 7 Norte 15 Nordeste 0 -- -- 67
2020-11-19 17:00:00 18.7 11 Norte 19 Norte 0 -- -- 58
2020-11-19 16:00:00 19.3 13 Norte 22 Norte 0 -- -- 59
2020-11-19 15:00:00 19.5 13 Norte 22 Norte 0 -- -- 57
2020-11-19 14:00:00 18.6 13 Norte 22 Norte 0 -- -- 63
2020-11-19 13:00:00 16.9 10 Norte 17 Norte 0 -- -- 72
2020-11-19 12:00:00 13.8 12 Norte 18 Norte 0 -- -- 78
2020-11-19 11:00:00 11.2 10 Norte 20 Norte 0 -- -- 84
2020-11-19 10:00:00 8.9 4 Norte 15 Norte 0 -- -- 94
2020-11-19 09:00:00 7.4 4 Norte 7 Norte 0 -- -- 97
2020-11-19 08:00:00 6.2 3 Sudoeste 11 Sur 0 -- -- 96
2020-11-19 07:00:00 6.8 6 Sur 8 Norte 0 -- -- 95
2020-11-19 06:00:00 8 7 Norte 10 Norte 0 -- -- 96
2020-11-19 05:00:00 6.9 6 Sur 11 Sur 0 -- -- 93
2020-11-19 04:00:00 7.6 0 Calma 6 Norte 0 -- -- 92
2020-11-19 03:00:00 10.5 4 Norte 8 Noroeste 0 -- -- 90
2020-11-19 02:00:00 8.9 3 Sudoeste 12 Sur 0 -- -- 93
2020-11-19 01:00:00 9.6 5 Sur 9 Sur 0 -- -- 89
2020-11-19 00:00:00 10.3 0 Calma 12 Sur 0 -- -- 92
2020-11-18 23:00:00 11.3 8 Sur 10 Sur 0 -- -- 87
2020-11-18 22:00:00 11.5 5 Sur 11 Sur 0 -- -- 90
2020-11-18 21:00:00 12.8 8 Sur 12 Sur 0 -- -- 86
2020-11-18 20:00:00 13.9 7 Sur 10 Sur 0 -- -- 81
2020-11-18 19:00:00 15 6 Sur 8 Sur 0 -- -- 75
2020-11-18 18:00:00 16.3 3 Sur 13 Sur 0 -- -- 70
2020-11-18 17:00:00 17.9 9 Sur 17 Sur 0 -- -- 67
2020-11-18 16:00:00 19.5 11 Sur 21 Sur 0 -- -- 61
2020-11-18 15:00:00 19.9 11 Sudeste 20 Sur 0 -- -- 60
2020-11-18 14:00:00 19.3 13 Sur 28 Sur 0 -- -- 61
2020-11-18 13:00:00 19 17 Sur 27 Sur 0 -- -- 61
2020-11-18 12:00:00 17 13 Sur 28 Sur 0 -- -- 72
2020-11-18 11:00:00 15.3 15 Sur 27 Sur 0 -- -- 81
2020-11-18 10:00:00 13.8 13 Sur 22 Sudeste 0 -- -- 87
2020-11-18 09:00:00 11.8 8 Sur 19 Sudeste 0 -- -- 91
2020-11-18 08:00:00 11.2 13 Sur 18 Sur 0 -- -- 90
2020-11-18 07:00:00 11.1 9 Sur 19 Sur 0 -- -- 87
2020-11-18 06:00:00 11.1 13 Sur 19 Sudeste 0 -- -- 85
2020-11-18 05:00:00 11.2 8 Sur 16 Sur 0 -- -- 86
2020-11-18 04:00:00 10.8 7 Sur 15 Sur 0 -- -- 86
2020-11-18 03:00:00 11.4 12 Sur 18 Sur 0 -- -- 85
2020-11-18 02:00:00 11.2 8 Sur 22 Sur 0 -- -- 85
2020-11-18 01:00:00 11.2 12 Sur 25 Sur 0 -- -- 84
2020-11-18 00:00:00 12.1 18 Sur 23 Sur 0 -- -- 81
2020-11-17 23:00:00 12.3 11 Sur 23 Sur 0 -- -- 81
2020-11-17 22:00:00 12.1 16 Sur 23 Sur 0 -- -- 81
2020-11-17 21:00:00 11.6 15 Sur 22 Sur 0 -- -- 77
2020-11-17 20:00:00 12.1 16 Sur 23 Sur 0 -- -- 79
2020-11-17 19:00:00 12.4 15 Sur 21 Sur 0 -- -- 80
2020-11-17 18:00:00 14.6 17 Sur 27 Sur 0 -- -- 71
2020-11-17 17:00:00 16.9 18 Sur 28 Sur 0 -- -- 62
2020-11-17 16:00:00 18.1 15 Sur 27 Sur 0 -- -- 62
2020-11-17 15:00:00 18.2 17 Sur 29 Sur 0 -- -- 59
2020-11-17 14:00:00 18 15 Sur 30 Sur 0 -- -- 64
2020-11-17 13:00:00 17.4 17 Sur 29 Sur 0 -- -- 65
2020-11-17 12:00:00 16.5 18 Sur 26 Sur 0 -- -- 70
2020-11-17 11:00:00 14.2 14 Sur 24 Sur 0 -- -- 84
2020-11-17 10:00:00 9.5 6 Sur 11 Sur 0 -- -- 97
2020-11-17 09:00:00 5 10 Sur 14 Sur 0 -- -- 98
2020-11-17 08:00:00 4.9 10 Sur 12 Sur 0 -- -- 96
2020-11-17 07:00:00 5.4 7 Sur 12 Sur 0 -- -- 96
2020-11-17 06:00:00 5.2 9 Sur 13 Sur 0 -- -- 95
2020-11-17 05:00:00 4.5 9 Sur 14 Sudeste 0 -- -- 94
2020-11-17 04:00:00 4.4 9 Sur 13 Sur 0 -- -- 95
2020-11-17 03:00:00 5 7 Sur 13 Sur 0 -- -- 95
2020-11-17 02:00:00 5.4 9 Sur 14 Sur 0 -- -- 96
2020-11-17 01:00:00 6 9 Sur 13 Sur 0 -- -- 95
2020-11-17 00:00:00 7 8 Sur 13 Sur 0 -- -- 94
2020-11-16 23:00:00 7.6 9 Sur 12 Sur 0 -- -- 91
2020-11-16 22:00:00 8.1 9 Sur 10 Sur 0 -- -- 90
2020-11-16 21:00:00 9.6 7 Sur 8 Sur 0 -- -- 85
2020-11-16 20:00:00 11.4 0 Calma 2 Nordeste 0 -- -- 74
2020-11-16 19:00:00 12.2 2 Nordeste 4 Nordeste 0 -- -- 71
2020-11-16 18:00:00 14.4 2 Nordeste 9 Nordeste 0 -- -- 67
2020-11-16 17:00:00 15.8 5 Nordeste 13 Noroeste 0 -- -- 60
2020-11-16 16:00:00 17.3 4 Noroeste 9 Oeste 0 -- -- 60
2020-11-16 15:00:00 16.4 2 Oeste 8 Norte 0 -- -- 64
2020-11-16 14:00:00 14.9 2 Nordeste 15 Norte 0 -- -- 80
2020-11-16 13:00:00 14.1 7 Norte 17 Norte 0 -- -- 85
2020-11-16 12:00:00 14 4 Noroeste 13 Norte 0 -- -- 87
2020-11-16 11:00:00 12.9 4 Oeste 7 Oeste 0 -- -- 94
2020-11-16 10:00:00 11.6 3 Sudeste 5 Sudeste 0 -- -- 99
2020-11-16 09:00:00 9.5 0 Calma 6 Este 0 -- -- 98
2020-11-16 08:00:00 10.1 0 Calma 6 Norte 0 -- -- 98
2020-11-16 07:00:00 10.9 4 Norte 6 Nordeste 0 -- -- 97
2020-11-16 06:00:00 11.8 3 Norte 12 Noroeste 0 -- -- 97
2020-11-16 05:00:00 12.1 8 Noroeste 17 Noroeste 0 -- -- 97
2020-11-16 04:00:00 11 3 Oeste 9 Sur 0 -- -- 96
2020-11-16 03:00:00 12.2 3 Sur 8 Oeste 0 -- -- 96
2020-11-16 02:00:00 12.1 5 Este 13 Sudoeste 0 -- -- 96
2020-11-16 01:00:00 12.7 10 Sudoeste 16 Sudoeste 0 -- -- 96
2020-11-16 00:00:00 12.2 10 Sudoeste 13 Sudoeste 0 -- -- 97
2020-11-15 23:00:00 11.2 10 Sur 14 Sur 0 -- -- 95
2020-11-15 22:00:00 12 10 Sur 16 Sur 0 -- -- 94
2020-11-15 21:00:00 13 15 Sur 23 Sur 0 -- -- 93
2020-11-15 20:00:00 13.7 13 Sur 19 Sur 0 -- -- 92
2020-11-15 19:00:00 14 15 Sur 23 Sur 0 -- -- 91
2020-11-15 18:00:00 14.4 12 Sudoeste 28 Sur 0 -- -- 90
2020-11-15 17:00:00 14.8 22 Sur 33 Sur 0 -- -- 89
2020-11-15 16:00:00 15.3 22 Sur 35 Sur 0 -- -- 88
2020-11-15 15:00:00 15.2 22 Sudoeste 35 Sudoeste 0 -- -- 89
2020-11-15 14:00:00 15.3 24 Sudoeste 37 Sudoeste 0 -- -- 88
2020-11-15 13:00:00 14.9 25 Sudoeste 39 Sur 0 -- -- 90
2020-11-15 12:00:00 14.6 23 Sur 39 Sur 0 -- -- 93
2020-11-15 11:00:00 14.2 22 Sur 35 Sur 0 -- -- 96
2020-11-15 10:00:00 13.9 22 Sur 35 Sur 0 -- -- 96
2020-11-15 09:00:00 13.4 22 Sur 30 Sur 0 -- -- 97
2020-11-15 08:00:00 13 15 Sur 30 Sur 0 -- -- 97
2020-11-15 07:00:00 12.9 25 Sur 35 Sur 0 -- -- 97
2020-11-15 06:00:00 12.6 14 Sur 22 Sur 0 -- -- 97
2020-11-15 05:00:00 12.4 13 Sur 22 Sur 0 -- -- 96
2020-11-15 04:00:00 12.3 16 Sur 32 Sur 0 -- -- 96
2020-11-15 03:00:00 12.1 19 Sur 34 Sur 0 -- -- 96
2020-11-15 02:00:00 11.9 18 Sur 29 Sur 0 -- -- 96
2020-11-15 01:00:00 11.7 16 Sur 30 Sur 0 -- -- 96
2020-11-15 00:00:00 11.8 15 Sur 25 Sudeste 0 -- -- 96
2020-11-14 23:00:00 11.3 12 Sur 28 Sur 0 -- -- 95
2020-11-14 22:00:00 11.4 13 Sur 21 Sur 0 -- -- 94
2020-11-14 21:00:00 11.4 10 Sur 21 Sur 0 -- -- 95
2020-11-14 20:00:00 11.6 14 Sur 22 Sur 0 -- -- 94
2020-11-14 19:00:00 12 13 Sudoeste 26 Sur 0 -- -- 93
2020-11-14 18:00:00 12.8 20 Sur 29 Sur 0 -- -- 90
2020-11-14 17:00:00 13 12 Sur 30 Sur 0 -- -- 89
2020-11-14 16:00:00 13 20 Sur 31 Sur 0 -- -- 90
2020-11-14 15:00:00 12.6 15 Sur 27 Sur 0 -- -- 95
2020-11-14 14:00:00 12.6 20 Sur 35 Sur 0 -- -- 92
2020-11-14 13:00:00 12.2 23 Sur 37 Sur 0 -- -- 94
2020-11-14 12:00:00 12.2 23 Sur 33 Sur 0 -- -- 94
2020-11-14 11:00:00 11.8 22 Sur 37 Sur 0 -- -- 95
2020-11-14 10:00:00 11 14 Sur 26 Sur 0 -- -- 96
2020-11-14 09:00:00 11 16 Sur 26 Sur 0 -- -- 94
2020-11-14 08:00:00 10.9 12 Sur 28 Sur 0 -- -- 91
2020-11-14 07:00:00 11.4 14 Sur 33 Sur 0 -- -- 89
2020-11-14 06:00:00 11.4 16 Sur 28 Sur 0 -- -- 87
2020-11-14 05:00:00 11 16 Sur 28 Sur 0 -- -- 88
2020-11-14 04:00:00 11.2 16 Sur 29 Sur 0 -- -- 86
2020-11-14 03:00:00 11.3 12 Sur 26 Sudeste 0 -- -- 84
2020-11-14 02:00:00 11.2 11 Sur 22 Sudeste 0 -- -- 84
2020-11-14 01:00:00 11 8 Sudeste 17 Sur 0 -- -- 85
2020-11-14 00:00:00 10.9 10 Sur 21 Sur 0 -- -- 84
2020-11-13 23:00:00 11 10 Sur 27 Sur 0 -- -- 84
2020-11-13 22:00:00 11 11 Sur 21 Sur 0 -- -- 85
2020-11-13 21:00:00 11.1 11 Sur 21 Sur 0 -- -- 83
2020-11-13 20:00:00 10.9 11 Sur 22 Sur 0 -- -- 82
2020-11-13 19:00:00 10.8 14 Sur 21 Sur 0 -- -- 82
2020-11-13 18:00:00 11.5 12 Sur 25 Sur 0 -- -- 78
2020-11-13 17:00:00 12.7 10 Sur 29 Sur 0 -- -- 73
2020-11-13 16:00:00 13.8 18 Sur 32 Sudeste 0 -- -- 67
2020-11-13 15:00:00 14.3 15 Sur 29 Sur 0 -- -- 70
2020-11-13 14:00:00 14.4 18 Sur 30 Sur 0 -- -- 69
2020-11-13 13:00:00 13.1 15 Sur 25 Sur 0 -- -- 71
2020-11-13 12:00:00 11.3 9 Sur 17 Sur 0 -- -- 84
2020-11-13 11:00:00 9.5 6 Sur 9 Sudeste 0 -- -- 90
2020-11-13 10:00:00 9 8 Sur 12 Sur 0 -- -- 92
2020-11-13 09:00:00 8 8 Sudeste 12 Sur 0 -- -- 92
2020-11-13 08:00:00 8.4 7 Sur 11 Sur 0 -- -- 90
2020-11-13 07:00:00 8.3 7 Sur 13 Sur 0 -- -- 90
2020-11-13 06:00:00 8.5 7 Sur 10 Sur 0 -- -- 89
2020-11-13 05:00:00 8.4 6 Sur 10 Sur 0 -- -- 90
2020-11-13 04:00:00 8.4 6 Sur 10 Sur 0 -- -- 90
2020-11-13 03:00:00 8.4 4 Sur 8 Sudeste 0 -- -- 90
2020-11-13 02:00:00 8.7 4 Sur 7 Sudoeste 0 -- -- 88
2020-11-13 01:00:00 8.4 5 Sur 8 Sur 0 -- -- 89
2020-11-13 00:00:00 9.5 6 Sur 8 Sur 0 -- -- 83
2020-11-12 23:00:00 9.7 4 Sur 9 Sur 0 -- -- 83
2020-11-12 22:00:00 9.8 6 Sur 11 Sur 0 -- -- 84
2020-11-12 21:00:00 10.3 5 Sudeste 12 Sudeste 0 -- -- 79
2020-11-12 20:00:00 10.4 7 Sur 14 Sur 0 -- -- 84
2020-11-12 19:00:00 11.2 9 Sur 13 Sur 0 -- -- 80
2020-11-12 18:00:00 12.4 8 Sur 14 Sur 0 -- -- 74
2020-11-12 17:00:00 13.2 9 Sur 14 Sur 0 -- -- 70
2020-11-12 16:00:00 14.5 8 Sur 18 Sur 0 -- -- 62
2020-11-12 15:00:00 14.3 9 Sur 18 Sur 0 -- -- 67
2020-11-12 14:00:00 14.3 9 Sur 14 Sudoeste 0 -- -- 66
2020-11-12 13:00:00 14.7 3 Sudoeste 10 Sudoeste 0 -- -- 64
2020-11-12 12:00:00 15.1 3 Sudeste 9 Sudeste 0 -- -- 68
2020-11-12 11:00:00 12.5 0 Calma 6 Sur 0 -- -- 82
2020-11-12 10:00:00 8.5 4 Sur 6 Sur 0 -- -- 94
2020-11-12 09:00:00 7.1 3 Sudeste 6 Sur 0 -- -- 94
2020-11-12 08:00:00 7.2 6 Sur 11 Sur 0 -- -- 93
2020-11-12 07:00:00 7.7 6 Sur 10 Sur 0 -- -- 94
2020-11-12 06:00:00 8.2 6 Sur 11 Sur 0 -- -- 92
2020-11-12 05:00:00 8.4 7 Sur 12 Sudeste 0 -- -- 93
2020-11-12 04:00:00 7.9 7 Sudeste 10 Sur 0 -- -- 95
2020-11-12 03:00:00 8.6 6 Sudeste 10 Sudeste 0 -- -- 93
2020-11-12 02:00:00 8.7 8 Sudeste 13 Sur 0 -- -- 91
2020-11-12 01:00:00 8.8 5 Sur 8 Sur 0 -- -- 91
2020-11-12 00:00:00 8.7 5 Sur 17 Sudeste 0 -- -- 92
2020-11-11 23:00:00 9 5 Sur 10 Sur 0 -- -- 89
2020-11-11 22:00:00 9.2 5 Sur 12 Sur 0 -- -- 90
2020-11-11 21:00:00 9.5 8 Sur 14 Sur 0 -- -- 90
2020-11-11 20:00:00 10.2 8 Sur 14 Sur 0 -- -- 89
2020-11-11 19:00:00 10.7 6 Sur 13 Sur 0 -- -- 86
2020-11-11 18:00:00 12.1 10 Sur 15 Sudeste 0 -- -- 81
2020-11-11 17:00:00 13.8 9 Sudeste 16 Sudeste 0 -- -- 74
2020-11-11 16:00:00 14 9 Sur 19 Sur 0 -- -- 74
2020-11-11 15:00:00 14.2 18 Sur 25 Sur 0 -- -- 73
2020-11-11 14:00:00 14.1 13 Sur 28 Sur 0 -- -- 71
2020-11-11 13:00:00 14.1 19 Sur 30 Sur 0 -- -- 70
2020-11-11 12:00:00 13.5 20 Sur 35 Sur 0 -- -- 71
2020-11-11 11:00:00 12.5 17 Sur 33 Sur 0 -- -- 76
2020-11-11 10:00:00 8.9 12 Sur 22 Sur 0 -- -- 100
2020-11-11 09:00:00 1.4 0 Calma 5 Sudeste 0 -- -- 99
2020-11-11 08:00:00 2 2 Norte 11 Sur 0 -- -- 98
2020-11-11 07:00:00 2.1 3 Sudeste 6 Sur 0 -- -- 99
2020-11-11 06:00:00 1.9 4 Sur 5 Sur 0.2 -- -- 98
2020-11-11 05:00:00 3.4 0 Calma 6 Norte 0 -- -- 98
2020-11-11 04:00:00 3.4 3 Norte 9 Sur 0 -- -- 99
2020-11-11 03:00:00 3.2 9 Sur 13 Sudeste 0 -- -- 98
2020-11-11 02:00:00 3.6 5 Sudeste 8 Sudeste 0 -- -- 97
2020-11-11 01:00:00 5 2 Sur 9 Sur 0 -- -- 98
2020-11-11 00:00:00 6.5 8 Sur 11 Sur 0 -- -- 97
2020-11-10 23:00:00 6.5 0 Calma 0 Calma 0 -- -- 96
2020-11-10 22:00:00 7.8 0 Calma 0 Calma 0 -- -- 95
2020-11-10 21:00:00 8.7 0 Calma 0 Calma 0 -- -- 96
2020-11-10 20:00:00 9.8 0 Calma 0 Calma 0 -- -- 92
2020-11-10 19:00:00 11.2 0 Calma 0 Calma 0 -- -- 88
2020-11-10 18:00:00 13.1 0 Calma 0 Calma 0 -- -- 80
2020-11-10 17:00:00 13.7 0 Calma 9 Norte 0 -- -- 81
2020-11-10 16:00:00 13.6 6 Norte 10 Noroeste 0 -- -- 85
2020-11-10 15:00:00 12.7 5 Norte 10 Norte 0 -- -- 89
2020-11-10 14:00:00 11.4 6 Norte 10 Norte 0 -- -- 94
2020-11-10 13:00:00 9.8 5 Norte 9 Norte 0 -- -- 98
2020-11-10 12:00:00 8.6 4 Noroeste 7 Norte 0 -- -- 99
2020-11-10 11:00:00 8.4 3 Este 6 Noroeste 0 -- -- 99
2020-11-10 10:00:00 7.8 2 Norte 8 Oeste 0 -- -- 98
2020-11-10 09:00:00 7.7 2 Sur 10 Nordeste 0 -- -- 98
2020-11-10 08:00:00 8.3 4 Este 9 Norte 0 -- -- 98
2020-11-10 07:00:00 8.4 4 Norte 9 Norte 0 -- -- 98
2020-11-10 06:00:00 8.5 4 Este 10 Este 0 -- -- 98
2020-11-10 05:00:00 8.7 0 Calma 3 Norte 0 -- -- 98
2020-11-10 04:00:00 8.5 0 Calma 4 Norte 0 -- -- 98
2020-11-10 03:00:00 7.8 3 Sur 5 Sur 0 -- -- 98
2020-11-10 02:00:00 7.7 4 Sudeste 6 Sudeste 0 -- -- 98
2020-11-10 01:00:00 6.8 5 Sur 10 Sur 0 -- -- 97
2020-11-10 00:00:00 6.7 4 Sudeste 7 Sur 0 -- -- 96
2020-11-09 23:00:00 8.5 0 Calma 5 Noroeste 0 -- -- 95
2020-11-09 22:00:00 9.4 4 Norte 6 Norte 0 -- -- 94
2020-11-09 21:00:00 9.4 0 Calma 5 Noroeste 0 -- -- 93
2020-11-09 20:00:00 10.4 3 Sur 7 Sudeste 0.4 -- -- 91
2020-11-09 19:00:00 11.3 5 Oeste 12 Oeste 1.2 -- -- 90
2020-11-09 18:00:00 12.4 2 Norte 11 Norte 0 -- -- 84
2020-11-09 17:00:00 13.8 4 Sudeste 14 Sur 0 -- -- 76
2020-11-09 16:00:00 12.7 10 Sur 17 Sur 0 -- -- 85
2020-11-09 15:00:00 13.8 10 Sudoeste 15 Oeste 0 -- -- 75
2020-11-09 14:00:00 13.6 9 Noroeste 19 Oeste 0 -- -- 78
2020-11-09 13:00:00 12.5 8 Sudoeste 18 Sudoeste 0 -- -- 83
2020-11-09 12:00:00 12.9 11 Sudoeste 18 Sur 0 -- -- 82
2020-11-09 11:00:00 11.2 12 Sudoeste 17 Sur 0 -- -- 90
2020-11-09 10:00:00 10.2 8 Sur 14 Sur 0 -- -- 98
2020-11-09 09:00:00 7.4 8 Sur 13 Sur 0 -- -- 99
2020-11-09 08:00:00 7 8 Sur 13 Sur 0 -- -- 97
2020-11-09 07:00:00 7.5 8 Sur 12 Sur 0 -- -- 98
2020-11-09 06:00:00 7.5 4 Sur 14 Sur 0 -- -- 97
2020-11-09 05:00:00 8.1 13 Sur 18 Sur 0 -- -- 97
2020-11-09 04:00:00 9.3 6 Sur 13 Sur 0 -- -- 97
2020-11-09 03:00:00 9.2 5 Sur 15 Sudoeste 0 -- -- 97
2020-11-09 02:00:00 9.7 11 Sur 14 Sudoeste 0 -- -- 97
2020-11-09 01:00:00 10.2 8 Sur 15 Sur 0 -- -- 97
2020-11-09 00:00:00 10.6 7 Sur 17 Sur 0 -- -- 97
2020-11-08 23:00:00 11.1 10 Sur 15 Sudeste 0 -- -- 97
2020-11-08 22:00:00 11.4 12 Sur 21 Sur 3 -- -- 97
2020-11-08 21:00:00 11.1 8 Sudoeste 24 Sur 3 -- -- 96
2020-11-08 20:00:00 11.4 13 Sur 29 Sur 0 -- -- 96
2020-11-08 19:00:00 11.6 19 Sur 30 Sur 1 -- -- 96
2020-11-08 18:00:00 11.4 18 Sur 33 Sur 1 -- -- 95
2020-11-08 17:00:00 11.7 17 Sur 35 Sudeste 0.6 -- -- 94
2020-11-08 16:00:00 11.9 20 Sur 44 Sur 0 -- -- 92
2020-11-08 15:00:00 12.4 27 Sur 41 Sur 0 -- -- 90
2020-11-08 14:00:00 11.7 24 Sur 41 Sudeste 0 -- -- 94
2020-11-08 13:00:00 11.6 21 Sur 36 Sur 1 -- -- 96
2020-11-08 12:00:00 11.1 18 Sur 36 Sur 0.4 -- -- 96
2020-11-08 11:00:00 11 15 Sur 38 Sur 0 -- -- 96
2020-11-08 10:00:00 10.7 18 Sur 39 Sur 0 -- -- 96
2020-11-08 09:00:00 10.3 23 Sur 36 Sur 0.2 -- -- 96
2020-11-08 08:00:00 10.1 18 Sur 31 Sur 0 -- -- 95
2020-11-08 07:00:00 10.2 18 Sur 38 Sur 0.4 -- -- 95
2020-11-08 06:00:00 10.3 17 Sudeste 33 Sur 0 -- -- 95
2020-11-08 05:00:00 10.4 23 Sur 39 Sur 0 -- -- 94
2020-11-08 04:00:00 10.5 23 Sur 42 Sur 0 -- -- 93
2020-11-08 03:00:00 10.8 27 Sur 41 Sur 0 -- -- 94
2020-11-08 02:00:00 10.3 24 Sur 39 Sur 0.2 -- -- 95
2020-11-08 01:00:00 10.5 22 Sur 39 Sur 0 -- -- 93
2020-11-08 00:00:00 10.7 14 Sur 32 Sur 0 -- -- 91
2020-11-07 23:00:00 10.9 21 Sur 36 Sur 0 -- -- 89
2020-11-07 22:00:00 11 21 Sur 37 Sur 0 -- -- 89
2020-11-07 21:00:00 11.3 23 Sur 40 Sur 0 -- -- 89
2020-11-07 20:00:00 11.1 20 Sur 33 Sur 0 -- -- 89
2020-11-07 19:00:00 11.1 14 Sur 27 Sur 0 -- -- 90
2020-11-07 18:00:00 11.2 16 Sur 29 Sur 0 -- -- 86
2020-11-07 17:00:00 12.3 17 Sur 34 Sur 0 -- -- 82
2020-11-07 16:00:00 12.9 22 Sur 36 Sur 0 -- -- 76
2020-11-07 15:00:00 12.9 27 Sur 37 Sur 0 -- -- 77
2020-11-07 14:00:00 12.7 21 Sur 31 Sur 0 -- -- 78
2020-11-07 13:00:00 12.3 22 Sudoeste 37 Sur 0 -- -- 80
2020-11-07 12:00:00 11.4 17 Sudoeste 32 Sur 0 -- -- 91
2020-11-07 11:00:00 11.4 23 Sur 31 Sur 0 -- -- 96
2020-11-07 10:00:00 10 12 Sur 19 Sur 0 -- -- 97
2020-11-07 09:00:00 8.9 8 Sur 19 Sudoeste 0 -- -- 97
2020-11-07 08:00:00 8.9 13 Sur 22 Sur 0 -- -- 95
2020-11-07 07:00:00 9.7 13 Sur 20 Sur 1 -- -- 96
2020-11-07 06:00:00 9.8 13 Sur 23 Sur 0.2 -- -- 96
2020-11-07 05:00:00 9.6 12 Sur 18 Sur 0 -- -- 95
2020-11-07 04:00:00 9.8 12 Sur 24 Sudeste 0.2 -- -- 94
2020-11-07 03:00:00 9.9 10 Sudeste 23 Sur 0 -- -- 95
2020-11-07 02:00:00 10 12 Sur 23 Sur 1.2 -- -- 96
2020-11-07 01:00:00 10 14 Sur 38 Sur 0 -- -- 95
2020-11-07 00:00:00 10.2 22 Sur 41 Sur 0 -- -- 94
2020-11-06 23:00:00 10.2 26 Sur 40 Sur 0.6 -- -- 93
2020-11-06 22:00:00 10.2 24 Sur 47 Sur 0.4 -- -- 91
2020-11-06 21:00:00 10.1 21 Sur 47 Sur 0.4 -- -- 92
2020-11-06 20:00:00 10.2 29 Sur 52 Sur 1.4 -- -- 92
2020-11-06 19:00:00 11.4 36 Sur 67 Sur 6.6 -- -- 83
2020-11-06 18:00:00 15 24 Sudeste 49 Sudeste 0 -- -- 73
2020-11-06 17:00:00 15.8 18 Sudeste 42 Sudeste 0 -- -- 67
2020-11-06 16:00:00 16 22 Sudeste 39 Sudeste 0 -- -- 68
2020-11-06 15:00:00 16 20 Sudeste 43 Sudeste 0 -- -- 67
2020-11-06 14:00:00 16.2 23 Sudeste 48 Sudeste 0.2 -- -- 68
2020-11-06 13:00:00 14.8 19 Sudeste 39 Sudeste 0.2 -- -- 72
2020-11-06 12:00:00 13.5 12 Sudeste 29 Sudeste 0 -- -- 78
2020-11-06 11:00:00 12.9 12 Oeste 24 Este 0 -- -- 86
2020-11-06 10:00:00 11.6 7 Este 14 Sudeste 0.2 -- -- 90
2020-11-06 09:00:00 11 10 Sudeste 25 Sudeste 0.2 -- -- 91
2020-11-06 08:00:00 11.1 16 Sudeste 37 Sudeste 0.8 -- -- 89
2020-11-06 07:00:00 12.6 30 Sudeste 52 Sudeste 0 -- -- 77
2020-11-06 06:00:00 12.5 19 Sudeste 36 Sudeste 0.2 -- -- 78
2020-11-06 05:00:00 11.3 15 Sudeste 27 Sudeste 0 -- -- 88
2020-11-06 04:00:00 10.3 12 Sudeste 22 Sudoeste 0.8 -- -- 93
2020-11-06 03:00:00 10.4 11 Sur 53 Sur 3.8 -- -- 93
2020-11-06 02:00:00 11.7 21 Sur 44 Sudeste 0.8 -- -- 86
2020-11-06 01:00:00 12 19 Sudeste 40 Sudeste 0 -- -- 80
2020-11-06 00:00:00 11.8 19 Sudeste 31 Sudeste 0 -- -- 80
2020-11-05 23:00:00 10.7 17 Sudeste 30 Sudeste 0 -- -- 84
2020-11-05 22:00:00 9 3 Sudoeste 15 Sudeste 0 -- -- 89
2020-11-05 21:00:00 9.5 9 Sudeste 21 Sudeste 0 -- -- 89
2020-11-05 20:00:00 8.9 5 Sudeste 12 Sudeste 0 -- -- 92
2020-11-05 19:00:00 9.2 5 Sudeste 30 Sudeste 1.2 -- -- 93
2020-11-05 18:00:00 10.1 18 Sudeste 34 Sudeste 3.8 -- -- 93
2020-11-05 17:00:00 10.9 15 Sudeste 29 Sudeste 1 -- -- 91
2020-11-05 16:00:00 11.5 17 Sudeste 31 Sudeste 2.6 -- -- 91
2020-11-05 15:00:00 12 15 Sudeste 30 Sudeste 0.8 -- -- 90
2020-11-05 14:00:00 12.9 21 Sudeste 37 Sudeste 0.2 -- -- 87
2020-11-05 13:00:00 11.7 13 Sudeste 41 Sudeste 0 -- -- 89
2020-11-05 12:00:00 11.7 22 Sudeste 41 Sudeste 0.6 -- -- 89
2020-11-05 11:00:00 11.3 20 Sudeste 41 Sudeste 0.6 -- -- 91
2020-11-05 10:00:00 10.7 9 Sudeste 32 Sudeste 0.2 -- -- 92
2020-11-05 09:00:00 9.7 13 Este 27 Este 1 -- -- 96
2020-11-05 08:00:00 8.3 7 Nordeste 12 Nordeste 0.6 -- -- 97
2020-11-05 07:00:00 7.9 5 Nordeste 10 Nordeste 0.6 -- -- 96
2020-11-05 06:00:00 7.8 8 Nordeste 23 Este 0.4 -- -- 95
2020-11-05 05:00:00 8.3 12 Este 22 Este 1 -- -- 94
2020-11-05 04:00:00 7.4 8 Nordeste 21 Norte 0 -- -- 93
2020-11-05 03:00:00 8.2 9 Nordeste 20 Nordeste -- -- -- 92
2020-11-05 02:00:00 8 10 Nordeste 19 Nordeste 0 -- -- 90
2020-11-05 01:00:00 8.3 5 Nordeste 15 Nordeste 0 -- -- 87
2020-11-05 00:00:00 7.1 5 Nordeste 19 Norte 0 -- -- 92
2020-11-04 23:00:00 7.6 7 Nordeste 26 Este 0 -- -- 88
2020-11-04 22:00:00 7.4 17 Este 30 Este 0 -- -- 88
2020-11-04 21:00:00 7.1 9 Nordeste 26 Nordeste 0 -- -- 89
2020-11-04 20:00:00 6.8 14 Nordeste 29 Nordeste 0 -- -- 89
2020-11-04 19:00:00 6.5 16 Nordeste 33 Nordeste 0.4 -- -- 89
2020-11-04 18:00:00 7.3 19 Nordeste 38 Nordeste 0 -- -- 82
2020-11-04 17:00:00 8.2 17 Nordeste 35 Nordeste 0 -- -- 82
2020-11-04 16:00:00 8.1 18 Nordeste 33 Nordeste 0 -- -- 82
2020-11-04 15:00:00 7.4 17 Nordeste 33 Norte 0.2 -- -- 84
2020-11-04 14:00:00 7.6 18 Nordeste 36 Nordeste 0 -- -- 77
2020-11-04 13:00:00 7.4 21 Nordeste 35 Nordeste 0 -- -- 74
2020-11-04 12:00:00 7.1 18 Nordeste 34 Nordeste 0 -- -- 75
2020-11-04 11:00:00 5.7 18 Norte 30 Norte 0 -- -- 81
2020-11-04 10:00:00 4.9 19 Norte 31 Norte 0 -- -- 85
2020-11-04 09:00:00 3.6 16 Norte 29 Nordeste 0 -- -- 91
2020-11-04 08:00:00 3 18 Norte 29 Norte 0 -- -- 92
2020-11-04 07:00:00 3.3 14 Norte 23 Norte 0 -- -- 92
2020-11-04 06:00:00 4.3 14 Norte 26 Norte 0 -- -- 91
2020-11-04 05:00:00 4.4 15 Norte 24 Norte 0 -- -- 92
2020-11-04 04:00:00 4.5 10 Norte 17 Norte 0 -- -- 91
2020-11-04 03:00:00 5.3 11 Norte 19 Norte 0 -- -- 90
2020-11-04 02:00:00 6.3 12 Norte 24 Norte 0 -- -- 89
2020-11-04 01:00:00 7.2 16 Norte 25 Norte 0 -- -- 87
2020-11-04 00:00:00 7.3 12 Norte 20 Norte 0 -- -- 85
2020-11-03 23:00:00 8.7 9 Norte 17 Nordeste 0 -- -- 79
2020-11-03 22:00:00 9.7 12 Nordeste 30 Nordeste 0 -- -- 75
2020-11-03 21:00:00 9.7 13 Nordeste 26 Nordeste 0 -- -- 73
2020-11-03 20:00:00 10 13 Nordeste 26 Norte 0 -- -- 71
2020-11-03 19:00:00 10.8 14 Nordeste 27 Norte 0 -- -- 71
2020-11-03 18:00:00 12.7 18 Nordeste 36 Nordeste 0 -- -- 68
2020-11-03 17:00:00 13.9 20 Nordeste 45 Nordeste 0 -- -- 68
2020-11-03 16:00:00 13.9 26 Nordeste 39 Norte 0 -- -- 69
2020-11-03 15:00:00 13.4 22 Nordeste 39 Norte 0 -- -- 73
2020-11-03 14:00:00 12.8 24 Nordeste 40 Nordeste 0 -- -- 74
2020-11-03 13:00:00 11.3 24 Nordeste 38 Nordeste 0 -- -- 80
2020-11-03 12:00:00 10.2 22 Nordeste 35 Norte 0 -- -- 83
2020-11-03 11:00:00 8.1 13 Norte 21 Norte 0 -- -- 87
2020-11-03 10:00:00 5.3 7 Norte 14 Norte 0 -- -- 88
2020-11-03 09:00:00 4.9 5 Norte 10 Noroeste 0 -- -- 86
2020-11-03 08:00:00 4.6 7 Norte 15 Noroeste 0 -- -- 84
2020-11-03 07:00:00 6.1 8 Norte 17 Noroeste 0 -- -- 82
2020-11-03 06:00:00 7.4 11 Norte 21 Norte 0 -- -- 82
2020-11-03 05:00:00 8.7 12 Norte 21 Norte 0 -- -- 81
2020-11-03 04:00:00 9.3 11 Noroeste 25 Noroeste 0.2 -- -- 88
2020-11-03 03:00:00 10.9 15 Norte 25 Norte 0 -- -- 93
2020-11-03 02:00:00 12 14 Norte 29 Noroeste 0 -- -- 95
2020-11-03 01:00:00 13.2 9 Norte 18 Norte 0 -- -- 96
2020-11-03 00:00:00 14.2 14 Noroeste 19 Noroeste 0.2 -- -- 95
2020-11-02 23:00:00 14.3 5 Noroeste 7 Noroeste 0 -- -- 93
2020-11-02 22:00:00 14.1 6 Norte 9 Norte 0 -- -- 90
2020-11-02 21:00:00 14.3 6 Noroeste 10 Noroeste 0 -- -- 88
2020-11-02 20:00:00 15 4 Noroeste 10 Noroeste 0 -- -- 86
2020-11-02 19:00:00 15.6 6 Noroeste 10 Noroeste 0 -- -- 83
2020-11-02 18:00:00 17 0 Calma 5 Norte 0 -- -- 74
2020-11-02 17:00:00 17.7 0 Calma 5 Este 0 -- -- 72
2020-11-02 16:00:00 18 4 Sudeste 9 Sur 0 -- -- 69
2020-11-02 15:00:00 18 5 Sur 10 Sur 0 -- -- 70
2020-11-02 14:00:00 18.1 2 Sudeste 10 Sudeste 0 -- -- 69
2020-11-02 13:00:00 18 6 Sur 12 Sudeste 0 -- -- 68
2020-11-02 12:00:00 17.2 0 Calma 9 Sudeste 0 -- -- 73
2020-11-02 11:00:00 15.2 3 Sudeste 8 Sudeste 0 -- -- 88
2020-11-02 10:00:00 13.6 0 Calma 4 Este 0 -- -- 97
2020-11-02 09:00:00 12.4 2 Sudeste 4 Sudeste 0 -- -- 97
2020-11-02 08:00:00 12.4 0 Calma 4 Sudeste 0 -- -- 96
2020-11-02 07:00:00 12.6 0 Calma 3 Sudeste 0 -- -- 97
2020-11-02 06:00:00 12.7 0 Calma 4 Sudeste 0 -- -- 97
2020-11-02 05:00:00 13 2 Sudeste 4 Sudeste 0 -- -- 96
2020-11-02 04:00:00 13.1 3 Sudeste 4 Sudeste 0 -- -- 96
2020-11-02 03:00:00 13.2 0 Calma 4 Sudeste 0 -- -- 96
2020-11-02 02:00:00 13.1 0 Calma 4 Norte 0 -- -- 95
2020-11-02 01:00:00 12.9 0 Calma 4 Noroeste 0 -- -- 95
2020-11-02 00:00:00 12.8 0 Calma 3 Nordeste 0 -- -- 93